Defiance, Ohio
Current Conditions -  °F | °C
As of 7:53 AM on Thursday 23 Oct 2014 (Local Time) from KDFI Reporting Station
Moderate Fog Moderate Fog  
Wind Chill: 31°   Ceiling: 500
Heat Index: 31°   Visibility: 0.5mi
Dew Point: 29°   Wind: 0mph
Humidity: 92%   Direction: NA
Pressure: 30.26"   Gusts: NA
Location:  41.29°N, 84.36°W
Report Text: KDFI 231153Z AUTO 00000KT 1/2SM FZFG VV005 M01/M02 A3026 RMK AO2 SLP254 I1001 I6002 T10061017 10017 21011 58001
Loading
Personal Weather Stations






























Interactive Weather Map
Tropical Storm Tracking
New forecast layout! Learn more

10-Day Weather Forecast

Advertisements
Track Severe Weather on mobile